• Join FlightAware (Why Join?)
  • Login
  • US Flag 
09:19PM EDT


 

Airport Tracker/Info


-or-


 

Live Flight TrackerFlight Track Log ✈ SWA232 ✈ 28-Apr-2013 ✈ KMHT - KMDW

Flight Track Log - Related Links

Times and Time Zones

All times are in EDT time to prevent confusion due to time zone crossing. See the SWA232 flight status page for this flight to view local times or setup timezone preferences in your user account.

Time Position Orientation Groundspeed Altitude Reporting Facility
EDT Latitude Longitude Course Direction KTS MPH feet Rate Location/Type
06:51AM 42.9500 -71.4333 328° Northwest 156 180 1,300  Level KA90
06:52AM 43.0050 -71.4806 328° Northwest 196 226 4,200 2,640 Climbing Boston Center
06:53AM 43.0472 -71.5622 305° West 221 254 7,500 3,300 Climbing Boston Center
06:54AM 43.0500 -71.6558 272° West 260 299 10,800 3,000 Climbing Boston Center
06:55AM 43.0572 -71.7922 274° West 311 358 13,500 2,760 Climbing Boston Center
06:56AM 43.0619 -71.9144 273° West 350 403 16,400 2,580 Climbing Boston Center
06:57AM 43.0667 -72.0422 273° West 374 430 18,700 2,640 Climbing Boston Center
06:58AM 43.0733 -72.2014 273° West 379 436 21,700 2,580 Climbing Boston Center
06:59AM 43.0881 -72.3492 278° West 391 450 23,900 2,160 Climbing Boston Center
07:00AM 43.0922 -72.5025 272° West 396 456 26,100 2,100 Climbing Boston Center
07:01AM 43.0900 -72.6789 269° West 418 481 28,200 1,920 Climbing Boston Center
07:02AM 43.0958 -72.8408 273° West 424 488 30,000 2,100 Climbing Boston Center
07:03AM 43.1014 -73.0031 273° West 429 494 32,400 1,920 Climbing Boston Center
07:04AM 43.1089 -73.1425 274° West 422 486 33,900 1,560 Climbing Boston Center
07:05AM 43.1139 -73.3161 272° West 422 486 35,600 1,380 Climbing Boston Center
07:06AM 43.1150 -73.4525 271° West 417 480 36,700 1,200 Climbing Boston Center
07:07AM 43.1175 -73.6064 271° West 412 474 38,000 600 Climbing Boston Center
07:08AM 43.1222 -73.7572 273° West 407 468 38,000  Level Boston Center
07:09AM 43.1267 -73.9081 272° West 402 463 38,000  Level Boston Center
07:10AM 43.1308 -74.0589 272° West 402 463 38,000  Level Boston Center
07:11AM 43.1350 -74.2069 272° West 402 463 38,000  Level Boston Center
07:12AM 43.1367 -74.3578 271° West 402 463 38,000  Level Boston Center
07:13AM 43.1403 -74.5031 272° West 402 463 38,000  Level Boston Center
07:14AM 43.1417 -74.6511 271° West 397 457 38,000  Level Boston Center
07:15AM 43.1450 -74.7992 272° West 397 457 38,000  Level Boston Center
07:16AM 43.1481 -74.9472 272° West 397 457 38,000  Level Boston Center
07:17AM 43.1486 -75.1067 270° West 392 451 38,000  Level Boston Center
07:18AM 43.1514 -75.2578 271° West 392 451 38,000  Level Boston Center
07:19AM 43.1539 -75.4058 271° West 397 457 38,000  Level Boston Center
07:20AM 43.1561 -75.5539 271° West 397 457 38,000  Level Boston Center
07:21AM 43.1581 -75.7050 271° West 397 457 38,000  Level Boston Center
07:22AM 43.1600 -75.8531 271° West 397 457 38,000  Level Boston Center
07:23AM 43.1619 -75.9986 271° West 397 457 38,000  Level Boston Center
07:24AM 43.1614 -76.1436 270° West 392 451 38,000  Level Boston Center
07:26AM 43.1092 -76.3797 253° West 372 428 38,000  Level Cleveland Center
07:27AM 43.0639 -76.5164 246° West 385 443 38,000  Level Cleveland Center
07:28AM 43.0186 -76.6528 246° West 390 449 38,000  Level Cleveland Center
07:29AM 42.9753 -76.7861 246° West 395 455 38,000  Level Cleveland Center
07:30AM 42.9317 -76.9192 246° West 390 449 38,000  Level Cleveland Center
07:31AM 42.8897 -77.0519 247° West 390 449 38,000  Level Cleveland Center
07:32AM 42.8458 -77.1847 246° West 390 449 38,000  Level Cleveland Center
07:33AM 42.8017 -77.3175 246° West 390 449 38,000  Level Cleveland Center
07:34AM 42.7594 -77.4497 247° West 385 443 38,000  Level Cleveland Center
07:35AM 42.7092 -77.5992 245° Southwest 393 452 38,000  Level Cleveland Center
07:36AM 42.6728 -77.7167 247° West 388 447 38,000  Level Cleveland Center
07:37AM 42.6281 -77.8514 246° West 388 447 38,000  Level Cleveland Center
07:38AM 42.5772 -77.9947 244° Southwest 388 447 38,000  Level Cleveland Center
07:39AM 42.5342 -78.1261 246° West 388 447 38,000  Level Cleveland Center
07:40AM 42.4889 -78.2544 244° Southwest 388 447 38,000  Level Cleveland Center
07:41AM 42.4456 -78.3856 246° West 388 447 38,000  Level Cleveland Center
07:42AM 42.4019 -78.5136 245° Southwest 388 447 38,000  Level Cleveland Center
07:43AM 42.3544 -78.6472 244° Southwest 388 447 38,000  Level Cleveland Center
07:44AM 42.3106 -78.7750 245° Southwest 388 447 38,000  Level Cleveland Center
07:45AM 42.2747 -78.8825 246° West 388 447 38,000  Level Cleveland Center
07:46AM 42.2206 -79.0356 244° Southwest 383 441 38,000 -600 Level Cleveland Center
07:47AM 42.1764 -79.1628 245° Southwest 383 441 36,900 -1,020 Descending Cleveland Center
07:48AM 42.1508 -79.2919 255° West 375 432 36,000 -480 Descending Cleveland Center
07:49AM 42.1356 -79.4267 261° West 363 418 36,000  Level Cleveland Center
07:50AM 42.1200 -79.5614 261° West 363 418 36,000  Level Cleveland Center
07:51AM 42.1025 -79.6933 260° West 363 418 36,000  Level Cleveland Center
07:52AM 42.0867 -79.8167 260° West 373 429 36,000  Level Cleveland Center
07:53AM 42.0708 -79.9511 261° West 373 429 36,000  Level Cleveland Center
07:54AM 42.0547 -80.0825 261° West 373 429 36,000  Level Cleveland Center
07:55AM 42.0344 -80.2169 259° West 368 423 36,000  Level Cleveland Center
07:56AM 42.0203 -80.3539 262° West 375 432 36,000  Level Cleveland Center
07:57AM 41.9994 -80.4994 259° West 370 426 36,000  Level Cleveland Center
07:58AM 41.9828 -80.6333 261° West 370 426 36,000  Level Cleveland Center
07:59AM 41.9639 -80.7703 260° West 370 426 36,000  Level Cleveland Center
08:00AM 41.9469 -80.9042 260° West 375 432 36,000  Level Cleveland Center
08:01AM 41.9278 -81.0381 259° West 375 432 36,000  Level Cleveland Center
08:02AM 41.9106 -81.1719 260° West 370 426 36,000  Level Cleveland Center
08:03AM 41.8911 -81.3056 259° West 370 426 36,000  Level Cleveland Center
08:04AM 41.8714 -81.4392 259° West 370 426 36,000  Level Cleveland Center
08:05AM 41.8556 -81.5756 261° West 375 432 36,000  Level Cleveland Center
08:06AM 41.8356 -81.7092 259° West 375 432 36,000  Level Cleveland Center
08:07AM 41.8156 -81.8453 259° West 369 425 36,000  Level Cleveland Center
08:08AM 41.7950 -81.9842 259° West 379 436 36,000  Level Cleveland Center
08:09AM 41.7767 -82.1117 259° West 384 442 36,000  Level Cleveland Center
08:10AM 41.7539 -82.2614 259° West 384 442 36,000  Level Cleveland Center
08:11AM 41.7328 -82.4028 259° West 384 442 36,000  Level Cleveland Center
08:12AM 41.7119 -82.5414 259° West 389 448 36,000  Level Cleveland Center
08:13AM 41.6906 -82.6825 259° West 389 448 36,000  Level Cleveland Center
08:14AM 41.6692 -82.8181 258° West 389 448 36,000  Level Cleveland Center
08:15AM 41.6478 -82.9564 258° West 389 448 36,000  Level Cleveland Center
08:16AM 41.6306 -83.0806 260° West 389 448 36,000  Level Cleveland Center
08:17AM 41.6042 -83.2325 257° West 389 448 36,000  Level Cleveland Center
08:18AM 41.5819 -83.3703 258° West 389 448 36,000  Level Cleveland Center
08:19AM 41.5619 -83.5083 259° West 389 448 36,000  Level Cleveland Center
08:20AM 41.5394 -83.6514 258° West 389 448 36,000  Level Cleveland Center
08:21AM 41.5167 -83.7919 258° West 389 448 36,000  Level Cleveland Center
08:22AM 41.4939 -83.9350 258° West 389 448 36,000  Level Cleveland Center
08:23AM 41.4708 -84.0806 258° West 389 448 36,000 -660 Level Cleveland Center
08:25AM 41.4675 -84.3053 269° West 402 463 34,300 -1,380 Descending Chicago Center
08:26AM 41.4733 -84.4539 273° West 402 463 32,400 -1,920 Descending Chicago Center
08:27AM 41.4789 -84.5997 273° West 395 455 30,500 -1,200 Descending Chicago Center
08:28AM 41.4844 -84.7461 273° West 396 456 30,000 -540 Descending Chicago Center
08:29AM 41.4900 -84.8992 273° West 409 471 29,500 -780 Descending Chicago Center
08:30AM 41.4958 -85.0553 273° West 418 481 28,500 -960 Descending Chicago Center
08:31AM 41.5003 -85.2139 272° West 424 488 27,600 -1,080 Descending Chicago Center
08:32AM 41.5044 -85.3756 272° West 428 493 26,400 -1,740 Descending Chicago Center
08:33AM 41.5100 -85.5339 273° West 421 484 24,100 -2,220 Descending Chicago Center
08:34AM 41.5153 -85.6831 273° West 402 463 21,900 -2,220 Descending Chicago Center
08:35AM 41.5194 -85.8297 272° West 395 455 19,700 -2,340 Descending Chicago Center
08:36AM 41.5236 -85.9975 272° West 376 433 17,200 -2,280 Descending Chicago Center
08:37AM 41.5236 -86.1325 270° West 366 421 15,100 -2,160 Descending Chicago Center
08:38AM 41.5231 -86.2639 270° West 356 410 12,900 -2,040 Descending Chicago Center
08:39AM 41.5231 -86.3925 270° West 346 398 11,000 -1,440 Descending Chicago Center
08:40AM 41.5214 -86.5114 269° West 318 366 10,000 -540 Descending Chicago Center
08:41AM 41.5208 -86.6294 270° West 317 365 10,000  Level Chicago Center
08:42AM 41.5208 -86.7592 270° West 309 356 10,000  Level Chicago Center
08:43AM 41.5189 -86.8586 269° West 275 316 10,000 -660 Level Chicago Center
08:44AM 41.5183 -86.9614 270° West 276 318 8,700 -1,380 Descending Chicago Center
08:45AM 41.5161 -87.0617 268° West 274 315 7,200 -1,440 Descending Chicago Center
08:46AM 41.5167 -87.1500 271° West 271 312 6,000 -1,200 Descending Chicago TRACON
08:47AM 41.5167 -87.2500 270° West 270 311 5,000 -1,020 Descending Chicago TRACON
08:48AM 41.5333 -87.3500 283° West 267 307 4,000 -540 Descending Chicago TRACON
08:49AM 41.5500 -87.4500 283° West 263 303 4,000  Level Chicago TRACON
08:50AM 41.5667 -87.5333 285° West 268 308 4,000  Level Chicago TRACON
08:50AM 41.5728 -87.5617 286° West 265 305 4,000  Level Chicago Center
08:51AM 41.5897 -87.6564 283° West 265 305 4,000  Level Chicago Center
08:52AM 41.5975 -87.7553 276° West 269 310 4,000  Level Chicago Center
08:53AM 41.6064 -87.8439 278° West 258 297 4,000  Level Chicago Center
08:54AM 41.6186 -87.9125 283° West 228 262 4,000 -600 Level Chicago Center
08:55AM 41.6733 -87.8947 14° North 198 228 2,800 -900 Descending Chicago Center
08:56AM 41.7000 -87.8667 38° Northeast 169 194 2,500 -480 Descending Chicago TRACON
08:57AM 41.7333 -87.8167 48° Northeast 154 177 2,100 -600 Descending Chicago TRACON
08:58AM 41.7500 -87.8000 37° Northeast 136 157 1,400 -540 Descending Chicago TRACON
08:59AM 41.7919 -87.7442 45° Northeast 148 170 900 -360 Descending Chicago Center